sensor_id;sensor_type;location;lat;lon;timestamp;P1;durP1;ratioP1;P2;durP2;ratioP2
15500;SDS011;7852;52.228;5.990;2022-11-20T00:02:54;7.4;;;5.2;;
15500;SDS011;7852;52.228;5.990;2022-11-20T00:02:54;8.9;;;7.1;;
15500;SDS011;7852;52.228;5.990;2022-11-20T00:02:58;10.9;;;7.9;;
15500;SDS011;7852;52.228;5.990;2022-11-20T00:03:58;9.7;;;6.2;;
15500;SDS011;7852;52.228;5.990;2022-11-20T00:04:58;11.7;;;5.9;;
15500;SDS011;7852;52.228;5.990;2022-11-20T00:05:59;8.4;;;5.9;;
15500;SDS011;7852;52.228;5.990;2022-11-20T00:06:58;5.6;;;4.5;;
15500;SDS011;7852;52.228;5.990;2022-11-20T00:07:58;6.7;;;5.4;;
15500;SDS011;7852;52.228;5.990;2022-11-20T00:08:58;10.5;;;6.4;;
15500;SDS011;7852;52.228;5.990;2022-11-20T00:09:58;9.4;;;7;;
15500;SDS011;7852;52.228;5.990;2022-11-20T00:11:01;6.9;;;5.8;;
15500;SDS011;7852;52.228;5.990;2022-11-20T00:11:58;7.2;;;5.4;;
15500;SDS011;7852;52.228;5.990;2022-11-20T00:12:58;9.9;;;6;;
15500;SDS011;7852;52.228;5.990;2022-11-20T00:13:58;6.5;;;4.9;;
15500;SDS011;7852;52.228;5.990;2022-11-20T00:14:58;7;;;6.3;;
15500;SDS011;7852;52.228;5.990;2022-11-20T00:15:58;9.4;;;6;;
15500;SDS011;7852;52.228;5.990;2022-11-20T00:17:58;6.4;;;5.1;;
15500;SDS011;7852;52.228;5.990;2022-11-20T00:18:58;6.8;;;5.4;;
15500;SDS011;7852;52.228;5.990;2022-11-20T00:19:58;5.2;;;4.7;;
15500;SDS011;7852;52.228;5.990;2022-11-20T00:21:02;5.9;;;4.4;;
15500;SDS011;7852;52.228;5.990;2022-11-20T00:21:58;9.2;;;6.1;;
15500;SDS011;7852;52.228;5.990;2022-11-20T00:22:58;5.4;;;4.8;;
15500;SDS011;7852;52.228;5.990;2022-11-20T00:23:58;6.6;;;4.9;;
15500;SDS011;7852;52.228;5.990;2022-11-20T00:25:15;10.9;;;6.4;;
15500;SDS011;7852;52.228;5.990;2022-11-20T00:26:00;7.7;;;5.7;;
15500;SDS011;7852;52.228;5.990;2022-11-20T00:26:58;5.9;;;4.8;;
15500;SDS011;7852;52.228;5.990;2022-11-20T00:27:58;6.5;;;5.3;;
15500;SDS011;7852;52.228;5.990;2022-11-20T00:28:59;9.7;;;5.5;;
15500;SDS011;7852;52.228;5.990;2022-11-20T00:29:58;7.8;;;5.8;;
15500;SDS011;7852;52.228;5.990;2022-11-20T00:31:02;8;;;6.5;;
15500;SDS011;7852;52.228;5.990;2022-11-20T00:32:58;6.8;;;5.4;;
15500;SDS011;7852;52.228;5.990;2022-11-20T00:33:58;9.9;;;7.6;;
15500;SDS011;7852;52.228;5.990;2022-11-20T00:34:58;9.6;;;6.4;;
15500;SDS011;7852;52.228;5.990;2022-11-20T00:35:59;9.1;;;5.9;;
15500;SDS011;7852;52.228;5.990;2022-11-20T00:36:58;9.2;;;5.6;;
15500;SDS011;7852;52.228;5.990;2022-11-20T00:37:58;20.5;;;6.5;;
15500;SDS011;7852;52.228;5.990;2022-11-20T00:39:15;10.6;;;6.5;;
15500;SDS011;7852;52.228;5.990;2022-11-20T00:39:58;5.4;;;4.3;;
15500;SDS011;7852;52.228;5.990;2022-11-20T00:40:58;9.2;;;5.7;;
15500;SDS011;7852;52.228;5.990;2022-11-20T00:41:58;10.9;;;6.3;;
15500;SDS011;7852;52.228;5.990;2022-11-20T00:42:58;7.5;;;4.9;;
15500;SDS011;7852;52.228;5.990;2022-11-20T00:43:58;6.8;;;5.9;;
15500;SDS011;7852;52.228;5.990;2022-11-20T00:44:58;4.3;;;3.7;;
15500;SDS011;7852;52.228;5.990;2022-11-20T00:45:58;6.3;;;4.6;;
15500;SDS011;7852;52.228;5.990;2022-11-20T00:46:58;5.4;;;4.2;;
15500;SDS011;7852;52.228;5.990;2022-11-20T00:47:58;5.7;;;5.1;;
15500;SDS011;7852;52.228;5.990;2022-11-20T00:48:58;6.4;;;3.6;;
15500;SDS011;7852;52.228;5.990;2022-11-20T00:49:58;5.6;;;4.6;;
15500;SDS011;7852;52.228;5.990;2022-11-20T00:50:58;5.3;;;4.7;;
15500;SDS011;7852;52.228;5.990;2022-11-20T00:52:58;4.8;;;4.3;;
15500;SDS011;7852;52.228;5.990;2022-11-20T00:53:58;6.8;;;5.3;;
15500;SDS011;7852;52.228;5.990;2022-11-20T00:54:58;8.3;;;5.2;;
15500;SDS011;7852;52.228;5.990;2022-11-20T00:55:58;9.3;;;5.8;;
15500;SDS011;7852;52.228;5.990;2022-11-20T00:56:58;7.8;;;5.9;;
15500;SDS011;7852;52.228;5.990;2022-11-20T00:57:58;5.9;;;4.8;;
15500;SDS011;7852;52.228;5.990;2022-11-20T00:58:59;6.9;;;5.9;;
15500;SDS011;7852;52.228;5.990;2022-11-20T00:59:58;6.7;;;5.3;;
15500;SDS011;7852;52.228;5.990;2022-11-20T01:00:59;8.6;;;6.2;;
15500;SDS011;7852;52.228;5.990;2022-11-20T01:01:58;5.3;;;4.8;;
15500;SDS011;7852;52.228;5.990;2022-11-20T01:02:58;8.7;;;5.5;;
15500;SDS011;7852;52.228;5.990;2022-11-20T01:03:59;14.5;;;5.6;;
15500;SDS011;7852;52.228;5.990;2022-11-20T01:04:58;7.9;;;5.1;;
15500;SDS011;7852;52.228;5.990;2022-11-20T01:05:59;8.7;;;6;;
15500;SDS011;7852;52.228;5.990;2022-11-20T01:06:58;7.1;;;4.9;;
15500;SDS011;7852;52.228;5.990;2022-11-20T01:07:58;10.1;;;6.3;;
15500;SDS011;7852;52.228;5.990;2022-11-20T01:08:58;5.1;;;4.6;;
15500;SDS011;7852;52.228;5.990;2022-11-20T01:09:58;8;;;5.5;;
15500;SDS011;7852;52.228;5.990;2022-11-20T01:10:58;8.1;;;6.1;;
15500;SDS011;7852;52.228;5.990;2022-11-20T01:11:58;6.5;;;5.3;;
15500;SDS011;7852;52.228;5.990;2022-11-20T01:12:58;6;;;4.8;;
15500;SDS011;7852;52.228;5.990;2022-11-20T01:13:58;11.4;;;5;;
15500;SDS011;7852;52.228;5.990;2022-11-20T01:14:58;7.6;;;5.4;;
15500;SDS011;7852;52.228;5.990;2022-11-20T01:16:01;5.6;;;4.9;;
15500;SDS011;7852;52.228;5.990;2022-11-20T01:16:58;7.6;;;4.3;;
15500;SDS011;7852;52.228;5.990;2022-11-20T01:17:58;6.6;;;4.8;;
15500;SDS011;7852;52.228;5.990;2022-11-20T01:19:58;5.2;;;4.5;;
15500;SDS011;7852;52.228;5.990;2022-11-20T01:21:00;7.5;;;5.8;;
15500;SDS011;7852;52.228;5.990;2022-11-20T01:21:58;9.6;;;4.3;;
15500;SDS011;7852;52.228;5.990;2022-11-20T01:22:58;6.4;;;4.3;;
15500;SDS011;7852;52.228;5.990;2022-11-20T01:23:58;9.5;;;4.6;;
15500;SDS011;7852;52.228;5.990;2022-11-20T01:24:58;4.4;;;4;;
15500;SDS011;7852;52.228;5.990;2022-11-20T01:25:59;5.4;;;4.9;;
15500;SDS011;7852;52.228;5.990;2022-11-20T01:26:58;7.2;;;5.4;;
15500;SDS011;7852;52.228;5.990;2022-11-20T01:27:58;6.2;;;5.4;;
15500;SDS011;7852;52.228;5.990;2022-11-20T01:28:59;5.5;;;4.3;;
15500;SDS011;7852;52.228;5.990;2022-11-20T01:29:58;8.6;;;5.4;;
15500;SDS011;7852;52.228;5.990;2022-11-20T01:30:58;8.9;;;4.6;;
15500;SDS011;7852;52.228;5.990;2022-11-20T01:31:58;6.7;;;4.5;;
15500;SDS011;7852;52.228;5.990;2022-11-20T01:32:58;6.4;;;3.8;;
15500;SDS011;7852;52.228;5.990;2022-11-20T01:34:16;7.4;;;4.2;;
15500;SDS011;7852;52.228;5.990;2022-11-20T01:34:58;8.4;;;5;;
15500;SDS011;7852;52.228;5.990;2022-11-20T01:36:02;8.7;;;5.6;;
15500;SDS011;7852;52.228;5.990;2022-11-20T01:36:58;6.6;;;4;;
15500;SDS011;7852;52.228;5.990;2022-11-20T01:37:58;5.2;;;3.4;;
15500;SDS011;7852;52.228;5.990;2022-11-20T01:38:58;5.2;;;4.4;;
15500;SDS011;7852;52.228;5.990;2022-11-20T01:39:58;6.8;;;4;;
15500;SDS011;7852;52.228;5.990;2022-11-20T01:41:15;8.9;;;4.3;;
15500;SDS011;7852;52.228;5.990;2022-11-20T01:41:58;5.8;;;4.5;;
15500;SDS011;7852;52.228;5.990;2022-11-20T01:43:06;9.4;;;4.4;;
15500;SDS011;7852;52.228;5.990;2022-11-20T01:43:58;5.3;;;4.6;;
15500;SDS011;7852;52.228;5.990;2022-11-20T01:44:58;8;;;4.6;;
15500;SDS011;7852;52.228;5.990;2022-11-20T01:46:00;4.1;;;3.7;;
15500;SDS011;7852;52.228;5.990;2022-11-20T01:47:58;6.5;;;3.7;;
15500;SDS011;7852;52.228;5.990;2022-11-20T01:48:58;5.4;;;3.6;;
15500;SDS011;7852;52.228;5.990;2022-11-20T01:49:59;5.1;;;3.4;;
15500;SDS011;7852;52.228;5.990;2022-11-20T01:51:15;7.4;;;4.9;;
15500;SDS011;7852;52.228;5.990;2022-11-20T01:51:58;4.7;;;4.2;;
15500;SDS011;7852;52.228;5.990;2022-11-20T01:52:58;5;;;3.9;;
15500;SDS011;7852;52.228;5.990;2022-11-20T01:54:15;5.9;;;4.1;;
15500;SDS011;7852;52.228;5.990;2022-11-20T01:54:59;13.2;;;4.6;;
15500;SDS011;7852;52.228;5.990;2022-11-20T01:55:58;5.5;;;3.3;;
15500;SDS011;7852;52.228;5.990;2022-11-20T01:56:58;4.4;;;4;;
15500;SDS011;7852;52.228;5.990;2022-11-20T01:57:58;4.3;;;3.8;;
15500;SDS011;7852;52.228;5.990;2022-11-20T01:59:14;6;;;4.3;;
15500;SDS011;7852;52.228;5.990;2022-11-20T01:59:59;7.3;;;3.8;;
15500;SDS011;7852;52.228;5.990;2022-11-20T02:00:58;7;;;3.8;;
15500;SDS011;7852;52.228;5.990;2022-11-20T02:01:58;4.7;;;3.9;;
15500;SDS011;7852;52.228;5.990;2022-11-20T02:02:58;5.3;;;3.1;;
15500;SDS011;7852;52.228;5.990;2022-11-20T02:03:59;4.9;;;3.6;;
15500;SDS011;7852;52.228;5.990;2022-11-20T02:05:00;4.1;;;3.7;;
15500;SDS011;7852;52.228;5.990;2022-11-20T02:06:01;5.1;;;4.1;;
15500;SDS011;7852;52.228;5.990;2022-11-20T02:06:59;5.3;;;3.2;;
15500;SDS011;7852;52.228;5.990;2022-11-20T02:07:59;4.1;;;3.7;;
15500;SDS011;7852;52.228;5.990;2022-11-20T02:08:59;7.2;;;4.7;;
15500;SDS011;7852;52.228;5.990;2022-11-20T02:09:59;9;;;4.6;;
15500;SDS011;7852;52.228;5.990;2022-11-20T02:11:12;3.2;;;3;;
15500;SDS011;7852;52.228;5.990;2022-11-20T02:11:59;4.5;;;4.1;;
15500;SDS011;7852;52.228;5.990;2022-11-20T02:12:59;6.9;;;4.1;;
15500;SDS011;7852;52.228;5.990;2022-11-20T02:13:59;8.4;;;5;;
15500;SDS011;7852;52.228;5.990;2022-11-20T02:14:59;5;;;3.9;;
15500;SDS011;7852;52.228;5.990;2022-11-20T02:15:59;3.4;;;3.1;;
15500;SDS011;7852;52.228;5.990;2022-11-20T02:16:59;5.2;;;3.6;;
15500;SDS011;7852;52.228;5.990;2022-11-20T02:18:59;5.6;;;4.1;;
15500;SDS011;7852;52.228;5.990;2022-11-20T02:19:59;4.5;;;3.7;;
15500;SDS011;7852;52.228;5.990;2022-11-20T02:21:01;3.7;;;3.4;;
15500;SDS011;7852;52.228;5.990;2022-11-20T02:22:00;9.7;;;4.9;;
15500;SDS011;7852;52.228;5.990;2022-11-20T02:22:59;5.3;;;4.8;;
15500;SDS011;7852;52.228;5.990;2022-11-20T02:24:00;7.2;;;4.5;;
15500;SDS011;7852;52.228;5.990;2022-11-20T02:24:59;5.1;;;4.6;;
15500;SDS011;7852;52.228;5.990;2022-11-20T02:26:15;2.9;;;2.7;;
15500;SDS011;7852;52.228;5.990;2022-11-20T02:27:00;6.9;;;4.6;;
15500;SDS011;7852;52.228;5.990;2022-11-20T02:27:59;7.2;;;4.4;;
15500;SDS011;7852;52.228;5.990;2022-11-20T02:28:59;7.9;;;3.9;;
15500;SDS011;7852;52.228;5.990;2022-11-20T02:30:00;8.5;;;5.1;;
15500;SDS011;7852;52.228;5.990;2022-11-20T02:30:59;8.2;;;4.4;;
15500;SDS011;7852;52.228;5.990;2022-11-20T02:31:59;9.9;;;4.2;;
15500;SDS011;7852;52.228;5.990;2022-11-20T02:32:59;8.3;;;5.1;;
15500;SDS011;7852;52.228;5.990;2022-11-20T02:33:59;4.3;;;3.4;;
15500;SDS011;7852;52.228;5.990;2022-11-20T02:35:39;5.1;;;4.6;;
15500;SDS011;7852;52.228;5.990;2022-11-20T02:35:59;6.1;;;4;;
15500;SDS011;7852;52.228;5.990;2022-11-20T02:36:59;8.7;;;5.2;;
15500;SDS011;7852;52.228;5.990;2022-11-20T02:38:00;10.7;;;5.3;;
15500;SDS011;7852;52.228;5.990;2022-11-20T02:38:59;6.3;;;4.2;;
15500;SDS011;7852;52.228;5.990;2022-11-20T02:39:59;5.5;;;4.8;;
15500;SDS011;7852;52.228;5.990;2022-11-20T02:40:59;7.3;;;5.5;;
15500;SDS011;7852;52.228;5.990;2022-11-20T02:42:00;4.5;;;3.7;;
15500;SDS011;7852;52.228;5.990;2022-11-20T02:42:59;4.6;;;4.2;;
15500;SDS011;7852;52.228;5.990;2022-11-20T02:43:59;3.8;;;3.4;;
15500;SDS011;7852;52.228;5.990;2022-11-20T02:44:59;5.6;;;4.2;;
15500;SDS011;7852;52.228;5.990;2022-11-20T02:45:59;4.7;;;3.9;;
15500;SDS011;7852;52.228;5.990;2022-11-20T02:46:59;5.7;;;4.9;;
15500;SDS011;7852;52.228;5.990;2022-11-20T02:47:59;6;;;4;;
15500;SDS011;7852;52.228;5.990;2022-11-20T02:49:00;7.4;;;4.2;;
15500;SDS011;7852;52.228;5.990;2022-11-20T02:49:59;7.8;;;5.2;;
15500;SDS011;7852;52.228;5.990;2022-11-20T02:50:59;8.6;;;5.1;;
15500;SDS011;7852;52.228;5.990;2022-11-20T02:51:59;5.4;;;4.3;;
15500;SDS011;7852;52.228;5.990;2022-11-20T02:52:59;5.1;;;4.6;;
15500;SDS011;7852;52.228;5.990;2022-11-20T02:54:15;6.5;;;4.1;;
15500;SDS011;7852;52.228;5.990;2022-11-20T02:54:59;8.2;;;4.2;;
15500;SDS011;7852;52.228;5.990;2022-11-20T02:55:59;6.6;;;4.4;;
15500;SDS011;7852;52.228;5.990;2022-11-20T02:56:59;4.1;;;3.6;;
15500;SDS011;7852;52.228;5.990;2022-11-20T02:57:59;4.9;;;4.5;;
15500;SDS011;7852;52.228;5.990;2022-11-20T02:58:59;6.3;;;3.6;;
15500;SDS011;7852;52.228;5.990;2022-11-20T02:59:59;7.1;;;4.2;;
15500;SDS011;7852;52.228;5.990;2022-11-20T03:00:59;9.7;;;4.1;;
15500;SDS011;7852;52.228;5.990;2022-11-20T03:01:59;4.4;;;4;;
15500;SDS011;7852;52.228;5.990;2022-11-20T03:02:59;5.9;;;3.8;;
15500;SDS011;7852;52.228;5.990;2022-11-20T03:03:59;4.6;;;3.5;;
15500;SDS011;7852;52.228;5.990;2022-11-20T03:04:59;5.5;;;4.2;;
15500;SDS011;7852;52.228;5.990;2022-11-20T03:05:59;2.6;;;2.4;;
15500;SDS011;7852;52.228;5.990;2022-11-20T03:06:59;3.7;;;3.4;;
15500;SDS011;7852;52.228;5.990;2022-11-20T03:07:59;9.7;;;4.3;;
15500;SDS011;7852;52.228;5.990;2022-11-20T03:09:00;7.5;;;4;;
15500;SDS011;7852;52.228;5.990;2022-11-20T03:10:17;5.7;;;4.4;;
15500;SDS011;7852;52.228;5.990;2022-11-20T03:11:01;4.3;;;3.9;;
15500;SDS011;7852;52.228;5.990;2022-11-20T03:11:59;4;;;3.4;;
15500;SDS011;7852;52.228;5.990;2022-11-20T03:12:59;7.8;;;3.8;;
15500;SDS011;7852;52.228;5.990;2022-11-20T03:14:01;3.3;;;3;;
15500;SDS011;7852;52.228;5.990;2022-11-20T03:14:59;7.9;;;3.3;;
15500;SDS011;7852;52.228;5.990;2022-11-20T03:16:04;4.7;;;3.8;;
15500;SDS011;7852;52.228;5.990;2022-11-20T03:17:13;6.7;;;3.3;;
15500;SDS011;7852;52.228;5.990;2022-11-20T03:17:59;3.3;;;2.6;;
15500;SDS011;7852;52.228;5.990;2022-11-20T03:18:59;3.4;;;3.1;;
15500;SDS011;7852;52.228;5.990;2022-11-20T03:19:59;5.5;;;3;;
15500;SDS011;7852;52.228;5.990;2022-11-20T03:20:59;3.6;;;3.3;;
15500;SDS011;7852;52.228;5.990;2022-11-20T03:21:59;8.1;;;3.9;;
15500;SDS011;7852;52.228;5.990;2022-11-20T03:22:59;5.7;;;4.2;;
15500;SDS011;7852;52.228;5.990;2022-11-20T03:24:15;2.8;;;2.6;;
15500;SDS011;7852;52.228;5.990;2022-11-20T03:24:59;5.9;;;4.1;;
15500;SDS011;7852;52.228;5.990;2022-11-20T03:26:15;4.9;;;4;;
15500;SDS011;7852;52.228;5.990;2022-11-20T03:26:59;4.7;;;4.3;;
15500;SDS011;7852;52.228;5.990;2022-11-20T03:27:59;11.1;;;4.8;;
15500;SDS011;7852;52.228;5.990;2022-11-20T03:29:01;4;;;3.5;;
15500;SDS011;7852;52.228;5.990;2022-11-20T03:29:59;8.2;;;3.9;;
15500;SDS011;7852;52.228;5.990;2022-11-20T03:31:04;3.3;;;3;;
15500;SDS011;7852;52.228;5.990;2022-11-20T03:31:59;4.2;;;3.3;;
15500;SDS011;7852;52.228;5.990;2022-11-20T03:32:59;5.2;;;4.1;;
15500;SDS011;7852;52.228;5.990;2022-11-20T03:33:59;5.3;;;4;;
15500;SDS011;7852;52.228;5.990;2022-11-20T03:34:59;8.7;;;5.7;;
15500;SDS011;7852;52.228;5.990;2022-11-20T03:36:00;6.2;;;5;;
15500;SDS011;7852;52.228;5.990;2022-11-20T03:36:59;3.8;;;3.4;;
15500;SDS011;7852;52.228;5.990;2022-11-20T03:38:59;5.3;;;3.4;;
15500;SDS011;7852;52.228;5.990;2022-11-20T03:39:59;3.1;;;2.8;;
15500;SDS011;7852;52.228;5.990;2022-11-20T03:40:59;5;;;4.5;;
15500;SDS011;7852;52.228;5.990;2022-11-20T03:41:59;2.3;;;2;;
15500;SDS011;7852;52.228;5.990;2022-11-20T03:42:59;8.3;;;2.9;;
15500;SDS011;7852;52.228;5.990;2022-11-20T03:43:59;4.9;;;4.2;;
15500;SDS011;7852;52.228;5.990;2022-11-20T03:44:59;3.5;;;3.2;;
15500;SDS011;7852;52.228;5.990;2022-11-20T03:45:59;4;;;3.6;;
15500;SDS011;7852;52.228;5.990;2022-11-20T03:46:59;5;;;3.2;;
15500;SDS011;7852;52.228;5.990;2022-11-20T03:47:59;5;;;3.8;;
15500;SDS011;7852;52.228;5.990;2022-11-20T03:48:59;5.6;;;2.7;;
15500;SDS011;7852;52.228;5.990;2022-11-20T03:49:59;3.9;;;3.2;;
15500;SDS011;7852;52.228;5.990;2022-11-20T03:51:07;4.1;;;3;;
15500;SDS011;7852;52.228;5.990;2022-11-20T03:51:59;3.1;;;2.7;;
15500;SDS011;7852;52.228;5.990;2022-11-20T03:53:15;9.3;;;4.2;;
15500;SDS011;7852;52.228;5.990;2022-11-20T03:54:01;4.3;;;3.7;;
15500;SDS011;7852;52.228;5.990;2022-11-20T03:54:59;3;;;2.7;;
15500;SDS011;7852;52.228;5.990;2022-11-20T03:55:59;3;;;2.8;;
15500;SDS011;7852;52.228;5.990;2022-11-20T03:56:59;3.8;;;3;;
15500;SDS011;7852;52.228;5.990;2022-11-20T03:57:59;6.4;;;3.7;;
15500;SDS011;7852;52.228;5.990;2022-11-20T03:58:59;5.5;;;3.6;;
15500;SDS011;7852;52.228;5.990;2022-11-20T03:59:59;3.4;;;2.7;;
15500;SDS011;7852;52.228;5.990;2022-11-20T04:01:03;3.4;;;3.1;;
15500;SDS011;7852;52.228;5.990;2022-11-20T04:01:59;2.3;;;2.2;;
15500;SDS011;7852;52.228;5.990;2022-11-20T04:02:59;3.4;;;3.1;;
15500;SDS011;7852;52.228;5.990;2022-11-20T04:03:59;5.4;;;3.5;;
15500;SDS011;7852;52.228;5.990;2022-11-20T04:04:59;2.5;;;2.3;;
15500;SDS011;7852;52.228;5.990;2022-11-20T04:06:01;3.9;;;3.5;;
15500;SDS011;7852;52.228;5.990;2022-11-20T04:06:59;5.4;;;4;;
15500;SDS011;7852;52.228;5.990;2022-11-20T04:07:59;3.4;;;3.1;;
15500;SDS011;7852;52.228;5.990;2022-11-20T04:08:59;3.9;;;3.5;;
15500;SDS011;7852;52.228;5.990;2022-11-20T04:09:59;7.7;;;2.6;;
15500;SDS011;7852;52.228;5.990;2022-11-20T04:11:07;3.8;;;2.9;;
15500;SDS011;7852;52.228;5.990;2022-11-20T04:11:59;4.2;;;2.5;;
15500;SDS011;7852;52.228;5.990;2022-11-20T04:12:59;2.5;;;2.3;;
15500;SDS011;7852;52.228;5.990;2022-11-20T04:13:59;3.2;;;2.4;;
15500;SDS011;7852;52.228;5.990;2022-11-20T04:16:00;5.1;;;2.7;;
15500;SDS011;7852;52.228;5.990;2022-11-20T04:17:00;4.7;;;3.4;;
15500;SDS011;7852;52.228;5.990;2022-11-20T04:18:00;3.6;;;3;;
15500;SDS011;7852;52.228;5.990;2022-11-20T04:19:02;3.2;;;2.8;;
15500;SDS011;7852;52.228;5.990;2022-11-20T04:20:00;3.6;;;3.3;;
15500;SDS011;7852;52.228;5.990;2022-11-20T04:21:00;3.7;;;3.4;;
15500;SDS011;7852;52.228;5.990;2022-11-20T04:22:00;3.5;;;3;;
15500;SDS011;7852;52.228;5.990;2022-11-20T04:23:00;3.5;;;3.2;;
15500;SDS011;7852;52.228;5.990;2022-11-20T04:24:17;2.7;;;2.5;;
15500;SDS011;7852;52.228;5.990;2022-11-20T04:25:00;3.4;;;2.7;;
15500;SDS011;7852;52.228;5.990;2022-11-20T04:26:00;6.4;;;3.2;;
15500;SDS011;7852;52.228;5.990;2022-11-20T04:27:00;6.1;;;3;;
15500;SDS011;7852;52.228;5.990;2022-11-20T04:28:00;3.2;;;2.9;;
15500;SDS011;7852;52.228;5.990;2022-11-20T04:29:15;4;;;3.6;;
15500;SDS011;7852;52.228;5.990;2022-11-20T04:30:03;3.6;;;2.6;;
15500;SDS011;7852;52.228;5.990;2022-11-20T04:31:02;4.3;;;3.9;;
15500;SDS011;7852;52.228;5.990;2022-11-20T04:32:00;3.4;;;3.1;;
15500;SDS011;7852;52.228;5.990;2022-11-20T04:33:12;3.9;;;3.1;;
15500;SDS011;7852;52.228;5.990;2022-11-20T04:34:00;7.1;;;3.2;;
15500;SDS011;7852;52.228;5.990;2022-11-20T04:35:00;12;;;3.9;;
15500;SDS011;7852;52.228;5.990;2022-11-20T04:36:01;8.1;;;3.2;;
15500;SDS011;7852;52.228;5.990;2022-11-20T04:37:00;3;;;2;;
15500;SDS011;7852;52.228;5.990;2022-11-20T04:38:00;3.8;;;3.4;;
15500;SDS011;7852;52.228;5.990;2022-11-20T04:39:00;6.6;;;3.3;;
15500;SDS011;7852;52.228;5.990;2022-11-20T04:40:00;5;;;4;;
15500;SDS011;7852;52.228;5.990;2022-11-20T04:41:17;4;;;3.1;;
15500;SDS011;7852;52.228;5.990;2022-11-20T04:42:00;3.1;;;2.5;;
15500;SDS011;7852;52.228;5.990;2022-11-20T04:43:01;2.8;;;2.6;;
15500;SDS011;7852;52.228;5.990;2022-11-20T04:44:02;4.9;;;3.8;;
15500;SDS011;7852;52.228;5.990;2022-11-20T04:45:02;3.9;;;3.2;;
15500;SDS011;7852;52.228;5.990;2022-11-20T04:46:01;5.5;;;2.5;;
15500;SDS011;7852;52.228;5.990;2022-11-20T04:48:01;2.5;;;2.1;;
15500;SDS011;7852;52.228;5.990;2022-11-20T04:49:01;3.6;;;3.3;;
15500;SDS011;7852;52.228;5.990;2022-11-20T04:50:01;2.9;;;2.6;;
15500;SDS011;7852;52.228;5.990;2022-11-20T04:51:02;4.4;;;2.8;;
15500;SDS011;7852;52.228;5.990;2022-11-20T04:52:01;4.7;;;3.9;;
15500;SDS011;7852;52.228;5.990;2022-11-20T04:53:01;4.8;;;3.5;;
15500;SDS011;7852;52.228;5.990;2022-11-20T04:54:17;5.9;;;3.7;;
15500;SDS011;7852;52.228;5.990;2022-11-20T04:55:01;5.4;;;3.3;;
15500;SDS011;7852;52.228;5.990;2022-11-20T04:56:01;6.4;;;4.2;;
15500;SDS011;7852;52.228;5.990;2022-11-20T04:57:01;5.1;;;3.9;;
15500;SDS011;7852;52.228;5.990;2022-11-20T04:58:01;3.4;;;2.6;;
15500;SDS011;7852;52.228;5.990;2022-11-20T04:59:01;7;;;3.2;;
15500;SDS011;7852;52.228;5.990;2022-11-20T05:00:15;2.2;;;2;;
15500;SDS011;7852;52.228;5.990;2022-11-20T05:01:01;6;;;2.5;;
15500;SDS011;7852;52.228;5.990;2022-11-20T05:02:01;4.6;;;3;;
15500;SDS011;7852;52.228;5.990;2022-11-20T05:03:01;3.2;;;2.9;;
15500;SDS011;7852;52.228;5.990;2022-11-20T05:04:01;3.4;;;3;;
15500;SDS011;7852;52.228;5.990;2022-11-20T05:05:01;4.3;;;3.8;;
15500;SDS011;7852;52.228;5.990;2022-11-20T05:06:01;3.4;;;3.1;;
15500;SDS011;7852;52.228;5.990;2022-11-20T05:07:01;2.4;;;2.1;;
15500;SDS011;7852;52.228;5.990;2022-11-20T05:08:01;4.9;;;3.3;;
15500;SDS011;7852;52.228;5.990;2022-11-20T05:09:17;4.1;;;3.6;;
15500;SDS011;7852;52.228;5.990;2022-11-20T05:10:02;4.3;;;2.8;;
15500;SDS011;7852;52.228;5.990;2022-11-20T05:11:01;3.6;;;3;;
15500;SDS011;7852;52.228;5.990;2022-11-20T05:12:01;3.9;;;2.7;;
15500;SDS011;7852;52.228;5.990;2022-11-20T05:13:01;3.5;;;3.2;;
15500;SDS011;7852;52.228;5.990;2022-11-20T05:14:01;8.6;;;2.9;;
15500;SDS011;7852;52.228;5.990;2022-11-20T05:15:01;7.4;;;3.7;;
15500;SDS011;7852;52.228;5.990;2022-11-20T05:16:01;4.6;;;2.5;;
15500;SDS011;7852;52.228;5.990;2022-11-20T05:17:01;8.4;;;4.5;;
15500;SDS011;7852;52.228;5.990;2022-11-20T05:18:17;4.7;;;4.1;;
15500;SDS011;7852;52.228;5.990;2022-11-20T05:19:01;2.8;;;2.6;;
15500;SDS011;7852;52.228;5.990;2022-11-20T05:20:01;2.3;;;2.1;;
15500;SDS011;7852;52.228;5.990;2022-11-20T05:21:15;3.3;;;3;;
15500;SDS011;7852;52.228;5.990;2022-11-20T05:22:01;4.5;;;2.3;;
15500;SDS011;7852;52.228;5.990;2022-11-20T05:23:01;4.8;;;2.9;;
15500;SDS011;7852;52.228;5.990;2022-11-20T05:24:01;2.9;;;2.6;;
15500;SDS011;7852;52.228;5.990;2022-11-20T05:25:01;4.6;;;3.4;;
15500;SDS011;7852;52.228;5.990;2022-11-20T05:26:17;9;;;3.2;;
15500;SDS011;7852;52.228;5.990;2022-11-20T05:27:01;4.1;;;3.7;;
15500;SDS011;7852;52.228;5.990;2022-11-20T05:28:01;4.6;;;3.2;;
15500;SDS011;7852;52.228;5.990;2022-11-20T05:29:01;3.7;;;3.1;;
15500;SDS011;7852;52.228;5.990;2022-11-20T05:30:01;6.1;;;4.3;;
15500;SDS011;7852;52.228;5.990;2022-11-20T05:31:05;6.3;;;3.5;;
15500;SDS011;7852;52.228;5.990;2022-11-20T05:32:01;3.3;;;3;;
15500;SDS011;7852;52.228;5.990;2022-11-20T05:34:01;6.6;;;3.8;;
15500;SDS011;7852;52.228;5.990;2022-11-20T05:35:01;6.4;;;2.5;;
15500;SDS011;7852;52.228;5.990;2022-11-20T05:36:01;4.6;;;3.6;;
15500;SDS011;7852;52.228;5.990;2022-11-20T05:37:01;2.9;;;2.6;;
15500;SDS011;7852;52.228;5.990;2022-11-20T05:38:01;7.3;;;3.4;;
15500;SDS011;7852;52.228;5.990;2022-11-20T05:39:01;7.1;;;3.1;;
15500;SDS011;7852;52.228;5.990;2022-11-20T05:40:13;4;;;2.9;;
15500;SDS011;7852;52.228;5.990;2022-11-20T05:41:02;2.6;;;2.4;;
15500;SDS011;7852;52.228;5.990;2022-11-20T05:42:01;2.4;;;2.2;;
15500;SDS011;7852;52.228;5.990;2022-11-20T05:43:01;5.4;;;3.4;;
15500;SDS011;7852;52.228;5.990;2022-11-20T05:44:01;2.6;;;2.1;;
15500;SDS011;7852;52.228;5.990;2022-11-20T05:45:02;3.6;;;2.3;;
15500;SDS011;7852;52.228;5.990;2022-11-20T05:46:01;3.3;;;3;;
15500;SDS011;7852;52.228;5.990;2022-11-20T05:47:12;2.2;;;2;;
15500;SDS011;7852;52.228;5.990;2022-11-20T05:48:01;3.3;;;2.7;;
15500;SDS011;7852;52.228;5.990;2022-11-20T05:49:13;3.6;;;2.4;;
15500;SDS011;7852;52.228;5.990;2022-11-20T05:50:01;3.8;;;3.2;;
15500;SDS011;7852;52.228;5.990;2022-11-20T05:51:16;3.3;;;2.9;;
15500;SDS011;7852;52.228;5.990;2022-11-20T05:52:16;3.2;;;2.5;;
15500;SDS011;7852;52.228;5.990;2022-11-20T05:53:01;5.2;;;4;;
15500;SDS011;7852;52.228;5.990;2022-11-20T05:54:01;4.5;;;3.1;;
15500;SDS011;7852;52.228;5.990;2022-11-20T05:55:01;2.6;;;2.4;;
15500;SDS011;7852;52.228;5.990;2022-11-20T05:56:01;3.4;;;3;;
15500;SDS011;7852;52.228;5.990;2022-11-20T05:57:01;6;;;3.5;;
15500;SDS011;7852;52.228;5.990;2022-11-20T05:58:13;4.4;;;3.3;;
15500;SDS011;7852;52.228;5.990;2022-11-20T05:59:03;3.5;;;2.7;;
15500;SDS011;7852;52.228;5.990;2022-11-20T06:00:05;5.1;;;2.8;;
15500;SDS011;7852;52.228;5.990;2022-11-20T06:01:04;4.4;;;3.4;;
15500;SDS011;7852;52.228;5.990;2022-11-20T06:02:04;4;;;3;;
15500;SDS011;7852;52.228;5.990;2022-11-20T06:03:04;2.2;;;2.1;;
15500;SDS011;7852;52.228;5.990;2022-11-20T06:04:04;3.2;;;2.9;;
15500;SDS011;7852;52.228;5.990;2022-11-20T06:05:05;2.5;;;2.3;;
15500;SDS011;7852;52.228;5.990;2022-11-20T06:06:04;4.3;;;2.5;;
15500;SDS011;7852;52.228;5.990;2022-11-20T06:07:14;3.8;;;3;;
15500;SDS011;7852;52.228;5.990;2022-11-20T06:08:04;5.3;;;3;;
15500;SDS011;7852;52.228;5.990;2022-11-20T06:09:04;4.8;;;3.3;;
15500;SDS011;7852;52.228;5.990;2022-11-20T06:10:15;3.3;;;2.8;;
15500;SDS011;7852;52.228;5.990;2022-11-20T06:11:04;3.9;;;3.1;;
15500;SDS011;7852;52.228;5.990;2022-11-20T06:12:04;3.1;;;2.8;;
15500;SDS011;7852;52.228;5.990;2022-11-20T06:13:04;5;;;3.7;;
15500;SDS011;7852;52.228;5.990;2022-11-20T06:14:04;10.7;;;3.2;;
15500;SDS011;7852;52.228;5.990;2022-11-20T06:15:05;5.6;;;3;;
15500;SDS011;7852;52.228;5.990;2022-11-20T06:16:04;5.8;;;3.1;;
15500;SDS011;7852;52.228;5.990;2022-11-20T06:17:04;3.9;;;3.2;;
15500;SDS011;7852;52.228;5.990;2022-11-20T06:18:04;3.6;;;2.9;;
15500;SDS011;7852;52.228;5.990;2022-11-20T06:19:04;2.6;;;2.4;;
15500;SDS011;7852;52.228;5.990;2022-11-20T06:20:04;5.8;;;3.9;;
15500;SDS011;7852;52.228;5.990;2022-11-20T06:21:05;7;;;3.2;;
15500;SDS011;7852;52.228;5.990;2022-11-20T06:22:12;4;;;3;;
15500;SDS011;7852;52.228;5.990;2022-11-20T06:23:04;5.2;;;3.6;;
15500;SDS011;7852;52.228;5.990;2022-11-20T06:24:15;3.7;;;3.3;;
15500;SDS011;7852;52.228;5.990;2022-11-20T06:25:04;7.8;;;4.2;;
15500;SDS011;7852;52.228;5.990;2022-11-20T06:26:15;5.1;;;3.1;;
15500;SDS011;7852;52.228;5.990;2022-11-20T06:27:05;4.8;;;4.3;;
15500;SDS011;7852;52.228;5.990;2022-11-20T06:28:05;5.1;;;4.5;;
15500;SDS011;7852;52.228;5.990;2022-11-20T06:29:15;4.3;;;3.1;;
15500;SDS011;7852;52.228;5.990;2022-11-20T06:30:15;3.6;;;3.2;;
15500;SDS011;7852;52.228;5.990;2022-11-20T06:31:15;3.6;;;3;;